Time;durP1;ratioP1;P1;durP2;ratioP2;P2;SDS_P1;SDS_P2;PMS_P1;PMS_P2;Temp;Humidity;BMP_temperature;BMP_pressure;BME280_temperature;BME280_humidity;BME280_pressure;Samples;Min_cycle;Max_cycle;Signal;HPM_P1;HPM_P2
2022/11/05 00:10:43;;;;;;;17.23;13.20;;;6.70;99.90;;;;;;2616425;47;20391;-86
2022/11/05 00:18:39;;;;;;;19.90;13.47;;;6.30;99.90;;;;;;2613022;54;20438;-85
2022/11/05 00:25:12;;;;;;;18.63;13.37;;;6.30;99.90;;;;;;2612432;54;20514;-84
2022/11/05 00:26:35;;;;;;;21.10;14.33;;;6.40;99.90;;;;;;2619984;39;20899;-87
2022/11/05 00:29:00;;;;;;;20.70;14.37;;;6.30;99.90;;;;;;2620607;54;20423;-87
2022/11/05 00:31:26;;;;;;;38.43;15.00;;;6.40;99.90;;;;;;2620468;54;20715;-88
2022/11/05 00:33:52;;;;;;;25.17;14.37;;;6.60;99.90;;;;;;2617892;54;20224;-85
2022/11/05 00:36:17;;;;;;;20.00;14.10;;;6.60;99.90;;;;;;2613603;54;20159;-85
2022/11/05 00:38:43;;;;;;;20.23;14.27;;;6.50;99.90;;;;;;2613685;54;20182;-89
2022/11/05 00:41:08;;;;;;;18.93;13.03;;;6.20;99.90;;;;;;2617138;47;20159;-87
2022/11/05 00:46:18;;;;;;;22.70;14.80;;;6.00;99.90;;;;;;2618500;54;20166;-88
2022/11/05 00:51:30;;;;;;;22.57;14.00;;;5.90;99.90;;;;;;2610853;47;20166;-77
2022/11/05 00:53:55;;;;;;;24.43;14.07;;;5.80;99.90;;;;;;2610773;47;21065;-79
2022/11/05 00:56:21;;;;;;;16.67;13.40;;;5.80;99.90;;;;;;2610522;54;20170;-79
2022/11/05 00:58:47;;;;;;;19.30;14.30;;;5.80;99.90;;;;;;2611185;54;20231;-80
2022/11/05 01:01:13;;;;;;;26.63;15.03;;;5.90;99.90;;;;;;2611905;54;20202;-80
2022/11/05 01:03:39;;;;;;;29.40;14.53;;;5.80;99.90;;;;;;2612175;54;20544;-79
2022/11/05 01:06:15;;;;;;;20.13;13.90;;;5.70;99.90;;;;;;2612300;54;20266;-80
2022/11/05 01:08:43;;;;;;;31.20;15.10;;;5.60;99.90;;;;;;2612541;54;20390;-80
2022/11/05 01:11:11;;;;;;;23.93;15.77;;;5.60;99.90;;;;;;2612588;47;20442;-79
2022/11/05 01:13:38;;;;;;;29.10;15.30;;;5.80;99.90;;;;;;2612609;54;20406;-88
2022/11/05 01:16:09;;;;;;;24.37;16.73;;;5.80;99.90;;;;;;2617986;54;20430;-89
2022/11/05 01:18:38;;;;;;;23.97;16.93;;;5.80;99.90;;;;;;2618431;54;20402;-89
2022/11/05 01:21:12;;;;;;;22.60;15.57;;;5.90;99.90;;;;;;2618283;54;20422;-89
2022/11/05 01:23:37;;;;;;;26.53;16.10;;;5.90;99.90;;;;;;2618883;54;20413;-79
2022/11/05 01:26:03;;;;;;;32.90;18.23;;;5.90;99.90;;;;;;2612268;54;20517;-78
2022/11/05 01:28:29;;;;;;;42.23;22.37;;;5.90;99.90;;;;;;2613457;54;20262;-79
2022/11/05 01:30:55;;;;;;;39.57;19.30;;;5.90;99.90;;;;;;2613618;54;20270;-80
2022/11/05 01:33:22;;;;;;;30.77;19.10;;;6.00;99.90;;;;;;2613927;54;20194;-81
2022/11/05 01:35:50;;;;;;;24.40;18.67;;;6.00;99.90;;;;;;2614773;54;20420;-80
2022/11/05 01:38:17;;;;;;;29.70;17.83;;;6.00;99.90;;;;;;2614845;54;20434;-81
2022/11/05 01:40:43;;;;;;;32.53;19.17;;;5.80;99.90;;;;;;2613424;54;20424;-78
2022/11/05 01:43:17;;;;;;;29.73;18.20;;;5.90;99.90;;;;;;2613474;54;20470;-77
2022/11/05 01:45:46;;;;;;;21.63;15.33;;;6.00;99.90;;;;;;2612403;47;20428;-77
2022/11/05 01:48:41;;;;;;;38.43;19.80;;;6.30;99.90;;;;;;2613881;39;20513;-78
2022/11/05 01:51:11;;;;;;;32.10;20.00;;;6.10;99.90;;;;;;2613615;54;20488;-76
2022/11/05 01:53:43;;;;;;;25.20;18.40;;;6.20;99.90;;;;;;2614699;54;20432;-87
2022/11/05 01:56:11;;;;;;;28.80;17.10;;;6.10;99.90;;;;;;2619599;47;20411;-88
2022/11/05 01:58:47;;;;;;;31.47;17.07;;;6.10;99.90;;;;;;2620010;54;20430;-77
2022/11/05 02:01:13;;;;;;;33.50;19.87;;;6.10;99.90;;;;;;2614590;39;20902;-77
2022/11/05 02:03:40;;;;;;;24.90;17.50;;;6.20;99.90;;;;;;2612063;54;20498;-77
2022/11/05 02:06:08;;;;;;;26.63;18.67;;;6.10;99.90;;;;;;2613200;54;20403;-78
2022/11/05 02:08:57;;;;;;;26.23;19.80;;;6.00;99.90;;;;;;2613599;46;21080;-78
2022/11/05 02:11:23;;;;;;;27.70;19.80;;;6.10;99.90;;;;;;2613204;54;20405;-77
2022/11/05 02:13:49;;;;;;;37.93;23.00;;;6.10;99.90;;;;;;2614127;54;20382;-78
2022/11/05 02:16:42;;;;;;;30.37;21.07;;;6.00;99.90;;;;;;2614489;54;20250;-81
2022/11/05 02:19:11;;;;;;;31.17;21.53;;;6.00;99.90;;;;;;2613759;54;20407;-80
2022/11/05 02:22:02;;;;;;;33.60;19.17;;;6.10;99.90;;;;;;2614085;46;20450;-77
2022/11/05 02:24:30;;;;;;;32.20;21.73;;;6.00;99.90;;;;;;2613874;54;20445;-78
2022/11/05 02:27:02;;;;;;;29.80;21.40;;;5.80;99.90;;;;;;2615358;54;20501;-85
2022/11/05 02:30:00;;;;;;;37.30;22.17;;;5.90;99.90;;;;;;2615056;54;20414;-84
2022/11/05 02:32:47;;;;;;;29.70;18.77;;;6.00;99.90;;;;;;2614803;54;20413;-81
2022/11/05 02:35:50;;;;;;;25.40;18.93;;;5.90;99.90;;;;;;2614457;54;20431;-80
2022/11/05 02:38:38;;;;;;;33.33;21.23;;;6.00;99.90;;;;;;2614283;54;20403;-77
2022/11/05 02:41:45;;;;;;;24.53;20.00;;;6.00;99.90;;;;;;2613820;47;20458;-79
2022/11/05 02:44:33;;;;;;;26.93;20.10;;;5.90;99.90;;;;;;2614121;54;20470;-81
2022/11/05 02:47:10;;;;;;;29.53;20.30;;;5.90;99.90;;;;;;2618995;54;20416;-88
2022/11/05 02:49:51;;;;;;;31.10;21.07;;;5.80;99.90;;;;;;2621501;54;20367;-88
2022/11/05 02:52:34;;;;;;;30.13;19.90;;;5.80;99.90;;;;;;2615955;47;20416;-79
2022/11/05 02:55:38;;;;;;;41.97;22.80;;;5.80;99.90;;;;;;2615000;54;20406;-80
2022/11/05 02:58:05;;;;;;;29.73;21.00;;;5.90;99.90;;;;;;2613926;39;20799;-79
2022/11/05 03:00:56;;;;;;;30.83;20.70;;;5.90;99.90;;;;;;2613759;39;20815;-79
2022/11/05 03:03:28;;;;;;;25.70;21.30;;;5.80;99.90;;;;;;2614624;54;21061;-78
2022/11/05 03:06:08;;;;;;;33.17;20.53;;;5.80;99.90;;;;;;2613671;47;20418;-80
2022/11/05 03:08:43;;;;;;;29.60;20.30;;;5.90;99.90;;;;;;2613555;54;20391;-80
2022/11/05 03:11:20;;;;;;;27.27;20.20;;;5.90;99.90;;;;;;2613600;54;20408;-77
2022/11/05 03:14:03;;;;;;;32.57;22.90;;;5.80;99.90;;;;;;2612567;39;20849;-77
2022/11/05 03:16:29;;;;;;;34.10;23.80;;;5.90;99.90;;;;;;2613020;39;20688;-78
2022/11/05 03:19:12;;;;;;;32.67;20.97;;;5.80;99.90;;;;;;2613734;54;20891;-78
2022/11/05 03:21:41;;;;;;;27.50;20.40;;;5.70;99.90;;;;;;2613385;54;20451;-79
2022/11/05 03:24:21;;;;;;;33.87;22.17;;;5.80;99.90;;;;;;2613880;54;20383;-79
2022/11/05 03:26:55;;;;;;;38.70;23.87;;;5.50;99.90;;;;;;2613867;54;20423;-78
2022/11/05 03:29:32;;;;;;;30.30;23.00;;;5.50;99.90;;;;;;2614480;54;20406;-79
2022/11/05 03:32:00;;;;;;;33.13;23.43;;;5.50;99.90;;;;;;2614782;54;20382;-81
2022/11/05 03:34:30;;;;;;;30.10;24.10;;;5.70;99.90;;;;;;2612127;51;20410;-78
2022/11/05 03:36:57;;;;;;;33.90;23.53;;;5.80;99.90;;;;;;2614189;54;20403;-77
2022/11/05 03:39:50;;;;;;;36.50;26.53;;;5.80;99.90;;;;;;2613773;54;20498;-77
2022/11/05 03:42:20;;;;;;;42.23;27.53;;;5.70;99.90;;;;;;2614227;54;20387;-86
2022/11/05 03:44:51;;;;;;;42.13;26.67;;;5.80;99.90;;;;;;2617072;54;20405;-86
2022/11/05 03:47:21;;;;;;;39.40;27.53;;;5.60;99.90;;;;;;2616180;54;21021;-87
2022/11/05 03:50:07;;;;;;;43.00;26.70;;;5.60;99.90;;;;;;2616983;39;20760;-87
2022/11/05 03:52:52;;;;;;;34.97;25.83;;;5.60;99.90;;;;;;2616284;54;20404;-79
2022/11/05 03:55:24;;;;;;;42.33;26.10;;;5.70;99.90;;;;;;2613781;54;20399;-80
2022/11/05 03:57:53;;;;;;;42.53;28.73;;;5.90;99.90;;;;;;2613050;54;20465;-79
2022/11/05 04:00:20;;;;;;;36.73;26.67;;;6.00;99.90;;;;;;2612748;39;20800;-78
2022/11/05 04:02:46;;;;;;;40.10;27.83;;;5.90;99.90;;;;;;2612874;47;20423;-79
2022/11/05 04:05:12;;;;;;;37.47;27.90;;;5.90;99.90;;;;;;2613537;54;20465;-80
2022/11/05 04:13:25;;;;;;;39.17;27.87;;;5.90;99.90;;;;;;2613226;54;20438;-78
2022/11/05 04:18:36;;;;;;;38.50;28.23;;;5.90;99.90;;;;;;2613629;54;21019;-78
2022/11/05 04:24:07;;;;;;;38.43;27.67;;;5.90;99.90;;;;;;2614618;54;20157;-77
2022/11/05 04:26:42;;;;;;;39.73;27.03;;;5.80;99.90;;;;;;2611058;54;20625;-78
2022/11/05 04:31:54;;;;;;;50.30;29.20;;;6.10;99.90;;;;;;2613416;54;21031;-80
2022/11/05 04:34:20;;;;;;;33.90;26.70;;;6.00;99.90;;;;;;2613124;54;20414;-81
2022/11/05 04:36:48;;;;;;;49.73;29.33;;;6.00;99.90;;;;;;2614009;54;20423;-80
2022/11/05 04:39:18;;;;;;;41.73;29.33;;;5.90;99.90;;;;;;2613990;39;20869;-77
2022/11/05 04:41:46;;;;;;;44.53;28.57;;;5.80;99.90;;;;;;2613977;54;20454;-77
2022/11/05 04:44:13;;;;;;;42.07;26.93;;;5.80;99.90;;;;;;2617039;47;20410;-87
2022/11/05 04:46:39;;;;;;;35.70;26.47;;;5.90;99.90;;;;;;2622065;54;20455;-87
2022/11/05 04:49:05;;;;;;;36.43;27.30;;;5.90;99.90;;;;;;2615974;47;20407;-78
2022/11/05 04:51:31;;;;;;;40.30;27.43;;;5.80;99.90;;;;;;2615654;54;20418;-79
2022/11/05 04:53:56;;;;;;;38.83;28.00;;;5.80;99.90;;;;;;2615896;54;20163;-81
2022/11/05 04:56:24;;;;;;;43.40;30.17;;;6.00;99.90;;;;;;2615803;39;20559;-78
2022/11/05 04:58:50;;;;;;;36.70;26.43;;;5.90;99.90;;;;;;2614006;54;20158;-81
2022/11/05 05:01:18;;;;;;;37.23;25.60;;;5.90;99.90;;;;;;2613417;54;20406;-80
2022/11/05 05:03:47;;;;;;;37.57;26.37;;;5.80;99.90;;;;;;2613697;54;20407;-79
2022/11/05 05:06:13;;;;;;;38.33;26.63;;;6.00;99.90;;;;;;2614134;54;21262;-80
2022/11/05 05:08:38;;;;;;;38.77;26.87;;;5.90;99.90;;;;;;2613387;54;20398;-78
2022/11/05 05:11:06;;;;;;;39.13;25.70;;;5.80;99.90;;;;;;2614429;54;20174;-78
2022/11/05 05:13:31;;;;;;;40.30;25.53;;;5.80;99.90;;;;;;2614776;54;20151;-78
2022/11/05 05:15:57;;;;;;;36.93;25.77;;;5.90;99.90;;;;;;2614236;54;20454;-78
2022/11/05 05:18:25;;;;;;;34.60;24.03;;;5.90;99.90;;;;;;2615808;54;20182;-80
2022/11/05 05:23:36;;;;;;;35.10;25.33;;;5.80;99.90;;;;;;2615761;54;20421;-79
2022/11/05 05:26:01;;;;;;;32.17;20.63;;;5.90;99.90;;;;;;2615058;54;20406;-80
2022/11/05 05:28:27;;;;;;;31.50;22.93;;;5.90;99.90;;;;;;2614619;54;20960;-80
2022/11/05 05:30:58;;;;;;;36.37;23.60;;;5.80;99.90;;;;;;2615504;54;20246;-80
2022/11/05 05:33:24;;;;;;;37.27;24.77;;;5.90;99.90;;;;;;2612555;47;20479;-78
2022/11/05 05:35:49;;;;;;;29.53;22.80;;;5.80;99.90;;;;;;2613736;54;20413;-78
2022/11/05 05:38:15;;;;;;;32.30;25.20;;;5.80;99.90;;;;;;2614320;54;20722;-81
2022/11/05 05:40:41;;;;;;;39.87;23.70;;;5.80;99.90;;;;;;2614081;54;20163;-80
2022/11/05 05:43:06;;;;;;;33.10;21.93;;;5.90;99.90;;;;;;2614689;54;20166;-79
2022/11/05 05:45:34;;;;;;;39.50;26.60;;;5.80;99.90;;;;;;2613866;54;20227;-80
2022/11/05 05:47:59;;;;;;;32.23;22.53;;;5.90;99.90;;;;;;2613992;54;20204;-78
2022/11/05 05:50:25;;;;;;;34.70;24.73;;;5.90;99.90;;;;;;2612739;47;20441;-77
2022/11/05 05:52:51;;;;;;;45.33;26.97;;;5.70;99.90;;;;;;2612884;54;20254;-79
2022/11/05 05:55:17;;;;;;;35.40;25.20;;;5.80;99.90;;;;;;2614034;54;20166;-79
2022/11/05 05:57:43;;;;;;;46.00;28.50;;;5.80;99.90;;;;;;2614619;54;20420;-84
2022/11/05 06:00:09;;;;;;;38.17;25.73;;;5.80;99.90;;;;;;2614500;54;20217;-84
2022/11/05 06:02:35;;;;;;;43.20;29.43;;;5.70;99.90;;;;;;2613522;54;20177;-78
2022/11/05 06:05:00;;;;;;;42.87;29.67;;;5.80;99.90;;;;;;2614242;54;20435;-77
2022/11/05 06:07:26;;;;;;;52.27;32.97;;;5.90;99.90;;;;;;2613064;54;20182;-79
2022/11/05 06:09:51;;;;;;;48.17;29.50;;;5.90;99.90;;;;;;2613516;47;20267;-79
2022/11/05 06:12:17;;;;;;;47.93;31.37;;;5.90;99.90;;;;;;2613386;54;20163;-84
2022/11/05 06:14:43;;;;;;;42.17;28.07;;;5.90;99.90;;;;;;2615903;54;20155;-85
2022/11/05 06:17:08;;;;;;;47.80;30.20;;;5.80;99.90;;;;;;2615999;54;20186;-85
2022/11/05 06:19:34;;;;;;;46.60;30.90;;;5.90;99.90;;;;;;2615243;54;20224;-85
2022/11/05 06:22:03;;;;;;;47.10;29.97;;;6.00;99.90;;;;;;2615909;54;20197;-85
2022/11/05 06:24:28;;;;;;;40.93;30.10;;;5.90;99.90;;;;;;2614805;39;20541;-79
2022/11/05 06:26:54;;;;;;;45.63;30.03;;;5.90;99.90;;;;;;2614395;54;20559;-81
2022/11/05 06:29:19;;;;;;;46.47;30.23;;;5.90;99.90;;;;;;2615473;54;20167;-87
2022/11/05 06:31:45;;;;;;;44.57;29.67;;;6.00;99.90;;;;;;2616130;54;20754;-86
2022/11/05 06:34:11;;;;;;;49.60;30.00;;;5.90;99.90;;;;;;2614405;54;20166;-80
2022/11/05 06:36:36;;;;;;;54.73;30.37;;;5.90;99.90;;;;;;2612753;54;20170;-79
2022/11/05 06:39:02;;;;;;;44.40;29.00;;;6.00;99.90;;;;;;2613636;54;20182;-79
2022/11/05 06:41:28;;;;;;;49.20;28.37;;;5.90;99.90;;;;;;2614261;54;20158;-78
2022/11/05 06:43:53;;;;;;;49.53;30.67;;;5.90;99.90;;;;;;2619157;54;20170;-89
2022/11/05 06:46:19;;;;;;;49.57;31.13;;;5.90;99.90;;;;;;2621941;54;20139;-88
2022/11/05 06:48:46;;;;;;;61.13;31.63;;;6.00;99.90;;;;;;2616821;54;20234;-86
2022/11/05 06:51:12;;;;;;;60.57;33.60;;;5.90;99.90;;;;;;2615867;54;20159;-87
2022/11/05 06:53:37;;;;;;;50.07;30.97;;;6.10;99.90;;;;;;2620497;54;20426;-89
2022/11/05 06:56:04;;;;;;;51.10;33.13;;;6.10;99.90;;;;;;2620722;54;20143;-87
2022/11/05 06:58:30;;;;;;;53.07;29.93;;;6.00;99.90;;;;;;2615641;47;20193;-81
2022/11/05 07:01:01;;;;;;;56.27;32.23;;;6.00;99.90;;;;;;2612257;54;21082;-81
2022/11/05 07:03:27;;;;;;;54.67;34.70;;;5.90;99.90;;;;;;2612961;47;20423;-79
2022/11/05 07:05:53;;;;;;;63.80;32.13;;;6.20;99.90;;;;;;2610930;39;20801;-80
2022/11/05 07:08:19;;;;;;;50.93;34.57;;;6.30;99.90;;;;;;2613868;54;20421;-81
2022/11/05 07:10:44;;;;;;;53.73;32.07;;;6.30;99.90;;;;;;2613494;46;20186;-80
2022/11/05 07:13:10;;;;;;;55.73;33.13;;;6.20;99.90;;;;;;2612258;54;20313;-80
2022/11/05 07:15:36;;;;;;;52.93;29.57;;;6.20;99.90;;;;;;2612943;54;20178;-81
2022/11/05 07:18:02;;;;;;;54.27;35.13;;;6.30;99.90;;;;;;2611478;39;20559;-78
2022/11/05 07:20:28;;;;;;;56.00;34.30;;;6.40;99.90;;;;;;2611984;54;20414;-79
2022/11/05 07:23:02;;;;;;;55.33;33.83;;;6.40;99.90;;;;;;2615707;31;20890;-89
2022/11/05 07:25:29;;;;;;;49.23;33.83;;;6.30;99.90;;;;;;2620104;54;20155;-90
2022/11/05 07:27:55;;;;;;;51.57;32.83;;;6.40;99.90;;;;;;2617848;47;21108;-85
2022/11/05 07:30:22;;;;;;;54.97;35.47;;;6.60;99.90;;;;;;2615463;54;20410;-85
2022/11/05 07:32:47;;;;;;;50.90;34.27;;;6.80;99.90;;;;;;2616515;54;20163;-86
2022/11/05 07:35:13;;;;;;;68.53;34.53;;;6.90;99.90;;;;;;2614230;47;20402;-86
2022/11/05 07:37:47;;;;;;;51.97;36.73;;;6.90;99.90;;;;;;2613140;54;20182;-81
2022/11/05 07:40:14;;;;;;;53.37;33.27;;;7.50;99.90;;;;;;2611722;39;20542;-80
2022/11/05 07:42:44;;;;;;;60.90;35.20;;;7.40;99.90;;;;;;2612952;54;20419;-81
2022/11/05 07:45:11;;;;;;;58.40;35.77;;;7.40;99.90;;;;;;2612949;47;20470;-80
2022/11/05 07:47:44;;;;;;;57.00;37.50;;;7.40;99.90;;;;;;2613985;54;20408;-80
2022/11/05 07:50:10;;;;;;;50.00;30.77;;;7.50;99.90;;;;;;2612227;54;20399;-79
2022/11/05 07:52:36;;;;;;;56.20;35.20;;;7.50;99.90;;;;;;2614216;54;20530;-88
2022/11/05 07:55:01;;;;;;;54.33;34.67;;;7.70;99.90;;;;;;2618427;47;20158;-89
2022/11/05 07:57:27;;;;;;;58.33;33.27;;;8.20;99.90;;;;;;2619952;54;20273;-80
2022/11/05 07:59:52;;;;;;;54.20;32.93;;;9.00;99.90;;;;;;2613343;54;20182;-80
2022/11/05 08:02:18;;;;;;;54.03;33.47;;;9.80;99.90;;;;;;2614278;54;20155;-89
2022/11/05 08:04:44;;;;;;;49.93;33.17;;;10.10;99.90;;;;;;2619800;54;20155;-88
2022/11/05 08:07:09;;;;;;;53.70;32.73;;;11.00;99.90;;;;;;2620389;47;20143;-79
2022/11/05 08:09:35;;;;;;;43.77;30.20;;;10.60;99.90;;;;;;2613491;54;20161;-79
2022/11/05 08:12:01;;;;;;;45.60;28.87;;;11.10;99.90;;;;;;2613854;54;20207;-80
2022/11/05 08:14:26;;;;;;;37.53;27.90;;;11.50;99.90;;;;;;2620263;54;20154;-87
2022/11/05 08:16:52;;;;;;;46.60;29.60;;;11.20;99.90;;;;;;2622334;54;20150;-88
2022/11/05 08:19:18;;;;;;;42.57;26.60;;;11.30;99.90;;;;;;2612755;46;20178;-77
2022/11/05 08:21:44;;;;;;;39.90;27.80;;;11.30;99.90;;;;;;2611323;47;20198;-78
2022/11/05 08:24:09;;;;;;;37.70;25.97;;;10.80;99.90;;;;;;2613603;54;21033;-79
2022/11/05 08:26:35;;;;;;;33.67;23.63;;;10.60;99.90;;;;;;2613007;54;20254;-78
2022/11/05 08:29:01;;;;;;;33.13;26.40;;;11.00;99.90;;;;;;2614429;47;20309;-80
2022/11/05 08:31:26;;;;;;;33.40;25.67;;;10.40;99.90;;;;;;2614376;54;20219;-84
2022/11/05 08:33:52;;;;;;;37.70;24.80;;;10.90;99.90;;;;;;2614525;54;20158;-79
2022/11/05 08:36:19;;;;;;;35.70;23.17;;;10.20;99.90;;;;;;2613922;54;20154;-79
2022/11/05 08:38:45;;;;;;;29.83;22.13;;;10.60;99.90;;;;;;2614346;54;20530;-78
2022/11/05 08:41:10;;;;;;;32.00;22.87;;;11.10;99.90;;;;;;2614076;54;20429;-78
2022/11/05 08:43:36;;;;;;;32.63;20.57;;;11.10;99.90;;;;;;2616575;54;20173;-87
2022/11/05 08:46:02;;;;;;;26.50;19.30;;;10.70;99.90;;;;;;2618369;54;20206;-87
2022/11/05 08:48:27;;;;;;;27.60;19.10;;;11.10;99.90;;;;;;2619281;47;20627;-89
2022/11/05 08:50:53;;;;;;;25.27;17.23;;;11.20;99.90;;;;;;2619954;54;20359;-88
2022/11/05 08:53:19;;;;;;;24.03;18.87;;;11.60;99.90;;;;;;2616340;54;20642;-80
2022/11/05 08:55:46;;;;;;;24.80;17.93;;;11.60;99.90;;;;;;2615259;47;20171;-82
2022/11/05 08:58:15;;;;;;;18.97;16.83;;;11.40;99.90;;;;;;2616498;54;20686;-80
2022/11/05 09:00:46;;;;;;;17.83;15.83;;;12.50;99.90;;;;;;2614881;54;21330;-78
2022/11/05 09:03:12;;;;;;;22.60;15.57;;;12.60;99.90;;;;;;2614456;54;20403;-78
2022/11/05 09:05:39;;;;;;;23.47;17.10;;;13.20;99.90;;;;;;2613588;47;20958;-78
2022/11/05 09:08:09;;;;;;;18.23;15.87;;;13.80;99.90;;;;;;2614638;39;20789;-79
2022/11/05 09:10:35;;;;;;;15.93;13.17;;;14.70;99.90;;;;;;2614485;54;20383;-78
2022/11/05 09:13:01;;;;;;;18.63;13.00;;;14.10;99.40;;;;;;2614433;54;20534;-81
2022/11/05 09:15:28;;;;;;;14.50;13.17;;;14.40;96.00;;;;;;2614421;39;20724;-79
2022/11/05 09:17:54;;;;;;;14.13;11.20;;;14.70;99.20;;;;;;2614170;54;20403;-79
2022/11/05 09:20:21;;;;;;;14.43;11.93;;;14.60;99.90;;;;;;2614263;54;20431;-79
2022/11/05 09:22:47;;;;;;;18.07;12.00;;;15.60;89.70;;;;;;2617928;47;20454;-91
2022/11/05 09:25:14;;;;;;;11.57;10.47;;;14.10;99.60;;;;;;2623387;47;20393;-91
2022/11/05 09:27:40;;;;;;;14.73;11.53;;;14.00;97.10;;;;;;2624376;47;20392;-89
2022/11/05 09:30:06;;;;;;;13.40;12.00;;;16.20;81.90;;;;;;2625352;54;20366;-90
2022/11/05 09:32:32;;;;;;;13.00;11.67;;;15.40;77.10;;;;;;2625729;47;20150;-90
2022/11/05 09:35:01;;;;;;;12.80;11.70;;;14.10;90.30;;;;;;2625368;54;20375;-90
2022/11/05 09:37:27;;;;;;;17.77;12.10;;;15.00;91.40;;;;;;2621359;54;20208;-79
2022/11/05 09:39:53;;;;;;;12.60;11.30;;;15.80;74.30;;;;;;2613557;39;20832;-79
2022/11/05 09:42:24;;;;;;;19.10;11.73;;;14.80;68.90;;;;;;2613083;54;20407;-78
2022/11/05 09:44:58;;;;;;;15.80;10.70;;;15.40;81.90;;;;;;2612795;54;20432;-78
2022/11/05 09:47:52;;;;;;;12.67;11.50;;;16.20;64.80;;;;;;2610073;54;20397;-79
2022/11/05 09:50:23;;;;;;;12.60;10.57;;;15.70;69.40;;;;;;2612330;31;20922;-78
2022/11/05 09:52:50;;;;;;;12.40;10.53;;;15.50;75.30;;;;;;2619612;39;20763;-92
2022/11/05 09:55:29;;;;;;;11.57;10.47;;;16.00;62.10;;;;;;2626160;47;20417;-89
2022/11/05 09:58:19;;;;;;;13.00;11.90;;;15.10;68.30;;;;;;2621099;54;20419;-79
2022/11/05 10:00:49;;;;;;;14.50;10.53;;;16.30;56.50;;;;;;2612927;54;20438;-79
2022/11/05 10:03:25;;;;;;;11.37;10.17;;;14.40;56.10;;;;;;2612817;54;20486;-81
2022/11/05 10:05:52;;;;;;;13.67;10.90;;;15.20;58.90;;;;;;2614643;31;20850;-81
2022/11/05 10:08:33;;;;;;;11.93;10.80;;;15.70;63.70;;;;;;2614450;39;20835;-79
2022/11/05 10:11:07;;;;;;;11.63;10.37;;;15.80;66.30;;;;;;2612721;54;20406;-79
2022/11/05 10:13:45;;;;;;;11.23;10.00;;;16.30;63.00;;;;;;2614906;54;20418;-81
2022/11/05 10:16:29;;;;;;;24.87;12.07;;;16.00;55.80;;;;;;2614189;54;20426;-82
2022/11/05 10:19:10;;;;;;;15.23;11.97;;;15.10;54.40;;;;;;2611530;54;21190;-81
2022/11/05 10:21:37;;;;;;;11.10;10.20;;;15.90;53.20;;;;;;2613432;54;20415;-81
2022/11/05 10:24:13;;;;;;;14.80;10.40;;;16.40;55.50;;;;;;2616300;39;20782;-87
2022/11/05 10:26:39;;;;;;;17.80;11.40;;;15.90;49.60;;;;;;2615839;46;20441;-87
2022/11/05 10:29:05;;;;;;;19.80;11.63;;;15.60;62.00;;;;;;2614046;54;20395;-80
2022/11/05 10:31:35;;;;;;;13.40;11.03;;;15.90;54.80;;;;;;2613055;54;20411;-82
2022/11/05 10:34:05;;;;;;;12.53;10.77;;;15.50;52.90;;;;;;2613773;39;20515;-82
2022/11/05 10:36:34;;;;;;;11.00;9.93;;;16.40;55.90;;;;;;2614346;54;20419;-80
2022/11/05 10:39:13;;;;;;;11.60;10.50;;;15.70;56.60;;;;;;2621906;46;20422;-89
2022/11/05 10:42:04;;;;;;;11.07;9.97;;;16.50;52.20;;;;;;2624292;54;20376;-89
2022/11/05 10:44:30;;;;;;;13.80;11.00;;;15.90;51.80;;;;;;2612213;54;20461;-80
2022/11/05 10:47:14;;;;;;;10.97;10.00;;;16.00;52.30;;;;;;2613127;54;20386;-80
2022/11/05 10:50:00;;;;;;;15.83;10.90;;;16.10;54.20;;;;;;2624942;47;20143;-88
2022/11/05 10:52:36;;;;;;;11.60;10.40;;;14.80;67.00;;;;;;2625398;39;20841;-81
2022/11/05 10:55:13;;;;;;;11.70;10.63;;;15.40;57.90;;;;;;2614350;47;20551;-78
2022/11/05 10:57:40;;;;;;;14.60;10.47;;;15.70;57.00;;;;;;2614573;54;20426;-79
2022/11/05 11:00:15;;;;;;;10.27;9.47;;;17.00;48.60;;;;;;2612839;54;20793;-79
2022/11/05 11:03:03;;;;;;;10.67;9.73;;;17.30;43.20;;;;;;2617019;39;20778;-91
2022/11/05 11:05:35;;;;;;;11.63;10.83;;;17.90;41.20;;;;;;2624998;54;20399;-91
2022/11/05 11:08:10;;;;;;;12.80;11.23;;;15.90;53.80;;;;;;2618921;54;21117;-81
2022/11/05 11:10:49;;;;;;;11.63;10.47;;;14.50;61.60;;;;;;2613954;54;20453;-80
2022/11/05 11:13:20;;;;;;;10.87;9.87;;;14.40;68.20;;;;;;2612986;39;20679;-80
2022/11/05 11:15:45;;;;;;;11.20;10.10;;;14.80;66.00;;;;;;2613920;48;20474;-80
2022/11/05 11:18:38;;;;;;;12.43;11.23;;;14.50;69.70;;;;;;2612610;47;20522;-80
2022/11/05 11:21:13;;;;;;;12.43;11.13;;;14.20;71.70;;;;;;2614771;54;20439;-80
2022/11/05 11:23:40;;;;;;;10.97;9.83;;;13.50;91.50;;;;;;2612760;54;20529;-79
2022/11/05 11:26:07;;;;;;;11.57;10.57;;;14.40;89.00;;;;;;2613542;54;21044;-80
2022/11/05 11:28:45;;;;;;;12.40;11.10;;;14.00;82.80;;;;;;2618486;54;20419;-87
2022/11/05 11:31:24;;;;;;;12.60;11.60;;;14.00;86.80;;;;;;2620604;54;20410;-89
2022/11/05 11:33:57;;;;;;;13.03;10.80;;;14.90;73.20;;;;;;2614661;54;20543;-79
2022/11/05 11:36:37;;;;;;;12.50;11.20;;;14.30;81.50;;;;;;2612863;47;20458;-79
2022/11/05 11:39:05;;;;;;;11.53;10.50;;;14.00;84.60;;;;;;2613759;47;21009;-79
2022/11/05 11:41:38;;;;;;;12.10;10.93;;;14.80;75.80;;;;;;2613181;54;20413;-79
2022/11/05 11:44:18;;;;;;;11.37;10.40;;;14.00;65.90;;;;;;2614647;54;20420;-81
2022/11/05 11:46:48;;;;;;;11.87;10.53;;;14.80;71.90;;;;;;2613445;47;20447;-80
2022/11/05 11:49:41;;;;;;;11.60;10.43;;;16.70;57.90;;;;;;2614084;47;20420;-80
2022/11/05 11:52:30;;;;;;;14.40;11.47;;;16.40;45.30;;;;;;2613624;54;20436;-79
2022/11/05 11:55:11;;;;;;;10.87;9.77;;;14.10;64.60;;;;;;2614722;54;20419;-79
2022/11/05 11:57:49;;;;;;;11.23;10.20;;;14.90;57.50;;;;;;2615896;54;20390;-87
2022/11/05 12:00:16;;;;;;;14.63;13.13;;;14.60;64.20;;;;;;2618733;54;20422;-86
2022/11/05 12:02:42;;;;;;;12.87;10.07;;;14.10;73.70;;;;;;2618942;54;20411;-79
2022/11/05 12:05:36;;;;;;;11.93;10.73;;;13.60;81.30;;;;;;2614687;54;20419;-78
2022/11/05 12:09:00;;;;;;;11.53;10.53;;;13.20;93.50;;;;;;2614292;39;20747;-79
2022/11/05 12:11:48;;;;;;;11.00;9.93;;;13.80;90.00;;;;;;2611745;54;21030;-80
2022/11/05 12:14:32;;;;;;;12.20;10.90;;;13.70;91.90;;;;;;2612729;54;20451;-80
2022/11/05 12:17:04;;;;;;;13.47;11.13;;;13.70;93.70;;;;;;2613591;54;20459;-79
2022/11/05 12:19:39;;;;;;;12.60;11.03;;;13.40;95.60;;;;;;2613161;54;20877;-79
2022/11/05 12:22:38;;;;;;;11.67;10.57;;;13.20;96.10;;;;;;2611628;54;20445;-79
2022/11/05 12:25:31;;;;;;;9.80;9.00;;;13.10;99.90;;;;;;2612489;54;20466;-79
2022/11/05 12:28:00;;;;;;;10.13;9.23;;;12.70;99.90;;;;;;2611589;54;20420;-78
2022/11/05 12:30:32;;;;;;;10.83;9.83;;;12.70;99.90;;;;;;2611296;54;20391;-81
2022/11/05 12:33:37;;;;;;;15.13;11.00;;;13.00;99.90;;;;;;2610165;54;20507;-78
2022/11/05 12:36:45;;;;;;;11.00;10.00;;;12.70;99.90;;;;;;2610958;47;20418;-79
2022/11/05 12:39:55;;;;;;;11.50;10.50;;;12.50;99.90;;;;;;2611601;54;20534;-80
2022/11/05 12:42:52;;;;;;;11.00;10.00;;;12.50;99.90;;;;;;2610331;54;20406;-81
2022/11/05 12:45:43;;;;;;;13.13;9.97;;;12.80;99.90;;;;;;2612403;54;20404;-82
2022/11/05 12:48:48;;;;;;;11.60;9.83;;;12.60;99.90;;;;;;2613605;47;20511;-80
2022/11/05 12:51:39;;;;;;;11.40;10.40;;;12.70;99.90;;;;;;2613258;54;20427;-81
2022/11/05 12:54:22;;;;;;;11.63;9.40;;;12.90;99.90;;;;;;2614183;47;20428;-81
2022/11/05 12:56:52;;;;;;;9.23;8.43;;;12.80;99.90;;;;;;2614610;39;20799;-81
2022/11/05 12:59:29;;;;;;;9.30;8.50;;;12.60;99.90;;;;;;2614743;54;20442;-80
2022/11/05 13:02:15;;;;;;;9.80;8.70;;;12.70;99.90;;;;;;2613447;54;20427;-79
2022/11/05 13:04:45;;;;;;;10.33;8.77;;;12.60;99.90;;;;;;2614220;54;20415;-82
2022/11/05 13:07:15;;;;;;;10.83;9.60;;;12.40;99.90;;;;;;2612766;54;20411;-80
2022/11/05 13:09:49;;;;;;;9.50;8.80;;;12.60;99.90;;;;;;2613215;54;20424;-80
2022/11/05 13:12:19;;;;;;;9.00;8.30;;;12.70;99.90;;;;;;2612786;47;20451;-79
2022/11/05 13:14:55;;;;;;;9.83;8.93;;;12.70;99.90;;;;;;2612488;54;20462;-79
2022/11/05 13:17:58;;;;;;;9.13;8.33;;;12.70;99.90;;;;;;2612277;54;20478;-80
2022/11/05 13:20:28;;;;;;;9.90;9.10;;;12.40;99.90;;;;;;2613050;47;20484;-80
2022/11/05 13:23:25;;;;;;;9.93;9.03;;;12.40;99.90;;;;;;2614407;54;20459;-81
2022/11/05 13:26:17;;;;;;;9.13;8.43;;;12.40;99.90;;;;;;2611758;54;20447;-81
2022/11/05 13:28:56;;;;;;;9.37;8.47;;;12.70;99.90;;;;;;2614380;39;20806;-80
2022/11/05 13:31:36;;;;;;;9.57;8.60;;;12.50;99.90;;;;;;2614144;39;21073;-82
2022/11/05 13:34:07;;;;;;;8.60;7.90;;;12.40;99.90;;;;;;2614830;54;20418;-79
2022/11/05 13:39:52;;;;;;;9.07;8.07;;;12.50;99.90;;;;;;2618750;47;20523;-90
2022/11/05 13:42:35;;;;;;;12.07;8.57;;;12.40;99.90;;;;;;2617806;54;20498;-79